Time;durP1;ratioP1;P1;durP2;ratioP2;P2;SDS_P1;SDS_P2;PMS_P1;PMS_P2;Temp;Humidity;BMP_temperature;BMP_pressure;BME280_temperature;BME280_humidity;BME280_pressure;Samples;Min_cycle;Max_cycle;Signal;HPM_P1;HPM_P2
2021/05/20 00:00:03;;;;;;;12.80;10.68;;;10.70;96.80;;;;;;2056185;28;20066;-70
2021/05/20 00:01:07;;;;;;;13.05;10.70;;;10.70;97.20;;;;;;2047612;29;20098;-72
2021/05/20 00:02:08;;;;;;;13.82;11.20;;;10.70;96.80;;;;;;2048128;28;20047;-71
2021/05/20 00:03:09;;;;;;;12.50;10.90;;;10.70;96.80;;;;;;2056179;28;20027;-72
2021/05/20 00:04:10;;;;;;;12.50;10.85;;;10.70;96.80;;;;;;2056178;28;20026;-70
2021/05/20 00:05:11;;;;;;;11.50;10.30;;;10.70;96.90;;;;;;2056138;28;20030;-70
2021/05/20 00:06:12;;;;;;;12.07;9.98;;;10.70;96.90;;;;;;2055655;28;20074;-72
2021/05/20 00:07:13;;;;;;;12.35;10.23;;;10.70;96.80;;;;;;2056171;28;20027;-71
2021/05/20 00:08:13;;;;;;;12.82;10.32;;;10.70;96.90;;;;;;2056116;28;20061;-72
2021/05/20 00:09:14;;;;;;;13.27;10.90;;;10.70;96.80;;;;;;2055940;28;20037;-72
2021/05/20 00:10:17;;;;;;;13.45;10.85;;;10.70;96.80;;;;;;2047616;29;20051;-72
2021/05/20 00:11:18;;;;;;;13.23;10.75;;;10.70;96.70;;;;;;2047864;28;20514;-72
2021/05/20 00:12:18;;;;;;;12.10;10.18;;;10.70;96.80;;;;;;2056168;28;20066;-70
2021/05/20 00:13:19;;;;;;;12.68;10.57;;;10.70;96.70;;;;;;2047784;29;20102;-71
2021/05/20 00:14:20;;;;;;;13.00;10.55;;;10.60;96.60;;;;;;2047596;29;20478;-71
2021/05/20 00:15:20;;;;;;;13.43;10.90;;;10.70;96.60;;;;;;2056193;28;20035;-72
2021/05/20 00:16:21;;;;;;;12.10;10.80;;;10.60;96.50;;;;;;2055906;28;20368;-71
2021/05/20 00:17:21;;;;;;;12.73;10.52;;;10.60;96.50;;;;;;2047476;28;20028;-71
2021/05/20 00:18:22;;;;;;;13.27;10.95;;;10.60;96.60;;;;;;2047889;29;20533;-71
2021/05/20 00:19:23;;;;;;;12.95;10.27;;;10.60;96.60;;;;;;2056298;28;20106;-71
2021/05/20 00:20:24;;;;;;;11.32;10.05;;;10.60;96.60;;;;;;2056342;28;20687;-71
2021/05/20 00:21:25;;;;;;;10.93;9.73;;;10.60;96.70;;;;;;2056411;28;20044;-71
2021/05/20 00:22:26;;;;;;;11.82;10.48;;;10.70;96.70;;;;;;2056344;28;20041;-71
2021/05/20 00:23:26;;;;;;;12.52;10.73;;;10.70;96.60;;;;;;2056385;28;20026;-71
2021/05/20 00:24:27;;;;;;;13.48;11.32;;;10.70;96.60;;;;;;2047712;29;20051;-70
2021/05/20 00:25:27;;;;;;;13.75;11.00;;;10.70;96.50;;;;;;2047681;29;20070;-71
2021/05/20 00:26:29;;;;;;;12.85;10.75;;;10.70;96.30;;;;;;2047212;29;20027;-71
2021/05/20 00:27:30;;;;;;;12.20;10.40;;;10.70;96.30;;;;;;2047673;28;20039;-72
2021/05/20 00:28:30;;;;;;;12.68;10.90;;;10.70;96.40;;;;;;2056265;28;20027;-71
2021/05/20 00:29:31;;;;;;;11.65;10.45;;;10.70;96.20;;;;;;2056059;28;20438;-70
2021/05/20 00:30:31;;;;;;;13.60;10.90;;;10.70;96.20;;;;;;2053411;28;20050;-72
2021/05/20 00:31:32;;;;;;;13.55;10.57;;;10.70;96.20;;;;;;2047432;29;20487;-71
2021/05/20 00:32:33;;;;;;;11.75;10.13;;;10.70;96.20;;;;;;2047396;29;20023;-70
2021/05/20 00:33:34;;;;;;;12.02;10.32;;;10.70;96.20;;;;;;2038964;29;20126;-71
2021/05/20 00:34:35;;;;;;;12.10;9.85;;;10.70;96.60;;;;;;2039366;29;20043;-70
2021/05/20 00:35:35;;;;;;;12.23;10.27;;;10.60;96.20;;;;;;2047357;28;20019;-72
2021/05/20 00:36:36;;;;;;;13.20;10.25;;;10.60;96.10;;;;;;2051335;28;20652;-72
2021/05/20 00:37:37;;;;;;;12.02;10.43;;;10.60;96.20;;;;;;2055918;28;20065;-72
2021/05/20 00:38:38;;;;;;;12.10;9.90;;;10.60;96.20;;;;;;2055911;28;20105;-72
2021/05/20 00:39:39;;;;;;;12.65;9.80;;;10.60;96.20;;;;;;2047396;29;20028;-72
2021/05/20 00:40:39;;;;;;;12.25;10.18;;;10.60;96.30;;;;;;2047597;29;20059;-72
2021/05/20 00:41:40;;;;;;;10.98;9.80;;;10.60;96.30;;;;;;2056102;28;20046;-72
2021/05/20 00:42:47;;;;;;;11.70;9.27;;;10.50;96.20;;;;;;2047519;29;20031;-72
2021/05/20 00:43:48;;;;;;;12.05;9.57;;;10.50;96.30;;;;;;2048423;28;20118;-71
2021/05/20 00:44:54;;;;;;;12.18;9.50;;;10.40;96.30;;;;;;2056142;28;20378;-73
2021/05/20 00:45:55;;;;;;;12.55;10.30;;;10.40;96.40;;;;;;2055694;28;20462;-72
2021/05/20 00:46:56;;;;;;;11.43;10.18;;;10.40;96.40;;;;;;2055984;28;20154;-73
2021/05/20 00:47:56;;;;;;;12.43;10.30;;;10.40;96.40;;;;;;2055991;28;20038;-73
2021/05/20 00:48:57;;;;;;;11.48;9.75;;;10.30;96.40;;;;;;2055979;28;20027;-72
2021/05/20 00:49:59;;;;;;;11.70;9.52;;;10.30;96.20;;;;;;2048362;29;20452;-71
2021/05/20 00:50:59;;;;;;;10.73;9.57;;;10.30;96.00;;;;;;2049130;29;20410;-71
2021/05/20 00:52:00;;;;;;;10.63;8.77;;;10.30;95.40;;;;;;2056961;28;20034;-72
2021/05/20 00:53:01;;;;;;;9.85;8.85;;;10.30;95.40;;;;;;2057089;28;20034;-72
2021/05/20 00:54:02;;;;;;;9.82;8.80;;;10.30;95.30;;;;;;2057504;28;20042;-71
2021/05/20 00:55:06;;;;;;;10.27;9.10;;;10.30;94.90;;;;;;2048994;29;20031;-71
2021/05/20 00:56:08;;;;;;;11.38;8.98;;;10.30;94.30;;;;;;2048528;29;20028;-71
2021/05/20 00:57:11;;;;;;;9.63;8.07;;;10.30;94.10;;;;;;2049140;28;20062;-72
2021/05/20 00:58:12;;;;;;;9.05;7.72;;;10.30;94.10;;;;;;2064917;28;20058;-71
2021/05/20 00:59:13;;;;;;;9.07;7.93;;;10.30;94.20;;;;;;2056798;28;20384;-72
2021/05/20 01:00:15;;;;;;;10.95;8.55;;;10.30;94.10;;;;;;2048848;29;20078;-71
2021/05/20 01:01:16;;;;;;;11.50;9.10;;;10.40;93.50;;;;;;2057463;28;20043;-72
2021/05/20 01:02:17;;;;;;;8.85;7.95;;;10.40;93.30;;;;;;2048791;29;20039;-71
2021/05/20 01:03:18;;;;;;;10.15;7.80;;;10.40;93.40;;;;;;2056806;28;20135;-72
2021/05/20 01:04:18;;;;;;;8.88;7.70;;;10.40;93.30;;;;;;2056654;28;20027;-71
2021/05/20 01:05:20;;;;;;;9.88;8.60;;;10.30;93.20;;;;;;2048715;29;20467;-72
2021/05/20 01:06:20;;;;;;;8.57;7.78;;;10.30;93.10;;;;;;2057096;28;20154;-72
2021/05/20 01:07:21;;;;;;;10.00;7.43;;;10.30;93.10;;;;;;2057281;28;20043;-72
2021/05/20 01:08:22;;;;;;;9.18;7.50;;;10.40;93.20;;;;;;2057393;28;20021;-72
2021/05/20 01:09:23;;;;;;;8.90;7.00;;;10.40;93.30;;;;;;2057325;28;20474;-71
2021/05/20 01:10:23;;;;;;;8.18;7.25;;;10.30;93.30;;;;;;2057377;28;20029;-72
2021/05/20 01:11:24;;;;;;;9.23;8.07;;;10.30;93.50;;;;;;2048937;29;20027;-71
2021/05/20 01:12:25;;;;;;;9.00;7.85;;;10.30;93.80;;;;;;2048817;29;20511;-71
2021/05/20 01:13:26;;;;;;;10.52;8.13;;;10.30;93.90;;;;;;2048946;28;20031;-72
2021/05/20 01:14:27;;;;;;;8.88;7.80;;;10.30;94.00;;;;;;2057381;28;20509;-72
2021/05/20 01:15:30;;;;;;;9.57;8.48;;;10.30;94.00;;;;;;2048802;29;20029;-72
2021/05/20 01:16:30;;;;;;;9.05;8.15;;;10.30;94.10;;;;;;2048681;28;20361;-71
2021/05/20 01:17:31;;;;;;;10.75;9.18;;;10.30;94.10;;;;;;2057274;28;20182;-72
2021/05/20 01:18:31;;;;;;;9.50;8.18;;;10.20;94.10;;;;;;2048834;29;20024;-72
2021/05/20 01:19:40;;;;;;;9.75;8.25;;;10.20;94.20;;;;;;2048946;29;20034;-72
2021/05/20 01:20:42;;;;;;;9.25;8.30;;;10.20;94.50;;;;;;2057457;28;20034;-71
2021/05/20 01:21:43;;;;;;;9.18;8.18;;;10.10;94.20;;;;;;2057391;28;20061;-72
2021/05/20 01:22:44;;;;;;;9.43;7.95;;;10.20;94.40;;;;;;2057426;28;20149;-72
2021/05/20 01:23:44;;;;;;;8.50;7.60;;;10.10;94.30;;;;;;2057285;28;20030;-72
2021/05/20 01:24:46;;;;;;;11.00;7.63;;;10.10;94.40;;;;;;2048726;29;20035;-72
2021/05/20 01:25:50;;;;;;;10.05;7.38;;;10.10;94.50;;;;;;2048861;28;20098;-71
2021/05/20 01:26:52;;;;;;;8.25;7.38;;;10.10;94.50;;;;;;2056893;28;20486;-71
2021/05/20 01:27:53;;;;;;;10.13;8.77;;;10.10;94.60;;;;;;2048688;29;20491;-71
2021/05/20 01:28:54;;;;;;;10.93;8.85;;;10.10;94.50;;;;;;2048877;28;20028;-72
2021/05/20 01:29:55;;;;;;;11.85;8.65;;;10.10;94.50;;;;;;2057247;28;20362;-71
2021/05/20 01:30:55;;;;;;;12.07;9.00;;;10.10;94.60;;;;;;2057246;28;20077;-72
2021/05/20 01:31:57;;;;;;;11.00;8.70;;;10.10;94.60;;;;;;2057212;28;20504;-71
2021/05/20 01:32:57;;;;;;;8.73;7.82;;;10.10;94.50;;;;;;2057228;28;20034;-71
2021/05/20 01:33:58;;;;;;;9.38;8.32;;;10.10;94.50;;;;;;2057136;28;20045;-73
2021/05/20 01:34:59;;;;;;;10.15;7.70;;;10.10;94.50;;;;;;2048641;29;20130;-71
2021/05/20 01:35:59;;;;;;;10.45;8.13;;;10.10;94.50;;;;;;2048265;29;20121;-72
2021/05/20 01:37:04;;;;;;;14.90;9.02;;;10.10;94.60;;;;;;2048457;28;20030;-72
2021/05/20 01:39:30;;;;;;;8.32;7.28;;;10.10;94.80;;;;;;2049190;29;20061;-72
2021/05/20 01:40:30;;;;;;;9.32;7.60;;;10.10;94.80;;;;;;2049273;29;20391;-73
2021/05/20 01:41:31;;;;;;;8.80;7.88;;;10.10;94.90;;;;;;2049260;29;20024;-72
2021/05/20 01:42:32;;;;;;;9.23;7.88;;;10.10;95.10;;;;;;2049316;29;20035;-71
2021/05/20 01:43:34;;;;;;;8.15;7.30;;;10.00;95.10;;;;;;2040602;29;20034;-72
2021/05/20 01:44:35;;;;;;;8.35;7.40;;;10.00;95.10;;;;;;2040715;29;20046;-71
2021/05/20 01:45:35;;;;;;;8.75;7.50;;;10.10;95.60;;;;;;2040799;29;20036;-72
2021/05/20 01:46:36;;;;;;;9.40;7.80;;;10.00;95.30;;;;;;2048849;28;20035;-72
2021/05/20 01:47:37;;;;;;;9.80;7.70;;;10.10;95.30;;;;;;2049109;29;20046;-72
2021/05/20 01:48:44;;;;;;;8.80;7.72;;;10.00;95.30;;;;;;2049194;29;20387;-71
2021/05/20 01:49:50;;;;;;;9.60;7.28;;;10.00;95.30;;;;;;2040707;29;20035;-73
2021/05/20 01:50:51;;;;;;;9.93;7.93;;;10.00;95.30;;;;;;2041504;29;20140;-71
2021/05/20 01:51:52;;;;;;;8.18;7.25;;;10.00;95.40;;;;;;2049306;29;20440;-72
2021/05/20 01:52:52;;;;;;;8.32;7.40;;;10.10;95.50;;;;;;2049259;29;20031;-71
2021/05/20 01:53:56;;;;;;;7.93;7.13;;;10.10;95.50;;;;;;2032773;29;20039;-71
2021/05/20 01:54:57;;;;;;;9.63;7.22;;;10.10;95.60;;;;;;2033532;29;20060;-72
2021/05/20 01:55:58;;;;;;;8.38;7.47;;;10.00;95.50;;;;;;2048864;29;20034;-72
2021/05/20 01:56:58;;;;;;;9.38;8.38;;;10.00;95.60;;;;;;2049107;29;20544;-72
2021/05/20 01:57:59;;;;;;;9.77;8.00;;;10.10;95.40;;;;;;2049139;29;20031;-72
2021/05/20 01:59:00;;;;;;;9.35;8.32;;;10.10;95.40;;;;;;2049094;29;20082;-72
2021/05/20 02:00:02;;;;;;;9.07;7.55;;;10.10;95.40;;;;;;2049224;29;20039;-72
2021/05/20 02:01:05;;;;;;;11.18;7.93;;;10.10;95.40;;;;;;2048378;28;20042;-71
2021/05/20 02:02:06;;;;;;;8.55;7.57;;;10.10;95.40;;;;;;2048644;29;20035;-72
2021/05/20 02:03:07;;;;;;;8.77;7.35;;;10.10;95.40;;;;;;2049150;28;20027;-71
2021/05/20 02:04:07;;;;;;;7.90;6.95;;;10.10;95.30;;;;;;2040684;29;20035;-71
2021/05/20 02:05:09;;;;;;;8.45;7.32;;;10.10;95.30;;;;;;2040795;29;20055;-71
2021/05/20 02:06:10;;;;;;;9.13;7.38;;;10.10;95.20;;;;;;2048810;28;20031;-71
2021/05/20 02:07:10;;;;;;;8.95;7.63;;;10.20;95.30;;;;;;2054934;28;20037;-71
2021/05/20 02:08:11;;;;;;;8.73;7.72;;;10.10;95.20;;;;;;2056971;28;20045;-72
2021/05/20 02:09:12;;;;;;;8.15;7.35;;;10.10;95.20;;;;;;2056992;28;20113;-71
2021/05/20 02:10:13;;;;;;;9.18;8.10;;;10.20;95.30;;;;;;2057138;28;20062;-72
2021/05/20 02:11:14;;;;;;;8.20;7.40;;;10.20;95.20;;;;;;2057106;28;20039;-72
2021/05/20 02:12:14;;;;;;;8.55;7.65;;;10.20;95.10;;;;;;2048429;29;20034;-72
2021/05/20 02:13:15;;;;;;;8.70;7.40;;;10.20;95.00;;;;;;2048419;29;20054;-72
2021/05/20 02:14:16;;;;;;;9.40;7.95;;;10.20;94.90;;;;;;2057110;28;20478;-71
2021/05/20 02:15:16;;;;;;;8.43;7.13;;;10.20;94.90;;;;;;2057168;28;20054;-72
2021/05/20 02:16:17;;;;;;;8.30;7.32;;;10.20;94.90;;;;;;2057677;28;20042;-71
2021/05/20 02:17:17;;;;;;;7.97;6.63;;;10.20;95.00;;;;;;2058779;28;20066;-71
2021/05/20 02:18:19;;;;;;;8.20;6.93;;;10.20;95.10;;;;;;2059015;28;20062;-71
2021/05/20 02:19:19;;;;;;;8.00;6.75;;;10.20;95.10;;;;;;2059210;28;20063;-72
2021/05/20 02:20:20;;;;;;;7.80;7.00;;;10.20;95.00;;;;;;2050337;29;20043;-72
2021/05/20 02:21:21;;;;;;;9.15;7.10;;;10.30;95.00;;;;;;2050211;28;20027;-72
2021/05/20 02:22:22;;;;;;;9.25;7.70;;;10.30;95.00;;;;;;2059125;28;20486;-71
2021/05/20 02:23:22;;;;;;;10.40;7.88;;;10.30;94.80;;;;;;2050469;29;20749;-71
2021/05/20 02:24:23;;;;;;;7.88;7.07;;;10.30;94.50;;;;;;2049486;29;20510;-71
2021/05/20 02:25:24;;;;;;;7.70;6.90;;;10.30;94.50;;;;;;2057145;28;20465;-72
2021/05/20 02:26:25;;;;;;;7.70;6.93;;;10.30;94.50;;;;;;2056511;28;20049;-72
2021/05/20 02:27:25;;;;;;;8.07;6.90;;;10.30;94.50;;;;;;2048331;29;20094;-72
2021/05/20 02:28:26;;;;;;;7.13;6.43;;;10.30;94.50;;;;;;2048604;29;20031;-72
2021/05/20 02:29:27;;;;;;;8.52;6.85;;;10.30;94.50;;;;;;2057194;28;20393;-71
2021/05/20 02:30:28;;;;;;;7.55;6.72;;;10.30;94.50;;;;;;2048278;29;20015;-72
2021/05/20 02:31:28;;;;;;;7.97;6.80;;;10.30;94.40;;;;;;2048330;28;20094;-71
2021/05/20 02:32:29;;;;;;;7.63;6.47;;;10.40;94.40;;;;;;2056906;28;20035;-72
2021/05/20 02:33:29;;;;;;;7.88;6.97;;;10.40;94.40;;;;;;2056736;28;20072;-72
2021/05/20 02:34:30;;;;;;;8.00;7.20;;;10.40;94.50;;;;;;2056766;28;20375;-72
2021/05/20 02:35:30;;;;;;;8.27;7.13;;;10.40;94.50;;;;;;2048275;29;20027;-71
2021/05/20 02:36:31;;;;;;;7.75;6.95;;;10.40;94.40;;;;;;2047589;29;20079;-72
2021/05/20 02:37:32;;;;;;;8.75;6.50;;;10.40;94.30;;;;;;2056791;28;20023;-72
2021/05/20 02:38:33;;;;;;;9.13;6.97;;;10.40;94.30;;;;;;2056744;28;20545;-72
2021/05/20 02:39:33;;;;;;;9.30;7.18;;;10.40;94.30;;;;;;2056863;28;20046;-72
2021/05/20 02:40:34;;;;;;;9.48;7.15;;;10.40;94.50;;;;;;2048263;29;20023;-72
2021/05/20 02:41:35;;;;;;;8.85;6.88;;;10.40;94.30;;;;;;2048273;28;20035;-72
2021/05/20 02:42:36;;;;;;;7.80;7.00;;;10.40;94.10;;;;;;2056748;28;20026;-72
2021/05/20 02:43:37;;;;;;;7.72;6.93;;;10.40;94.10;;;;;;2056802;28;20065;-72
2021/05/20 02:44:37;;;;;;;11.07;6.88;;;10.40;94.10;;;;;;2048111;29;20031;-72
2021/05/20 02:45:38;;;;;;;7.78;6.60;;;10.40;94.00;;;;;;2048237;29;20062;-72
2021/05/20 02:46:39;;;;;;;7.03;5.75;;;10.40;94.10;;;;;;2056501;28;20043;-73
2021/05/20 02:47:39;;;;;;;7.22;6.25;;;10.40;94.20;;;;;;2056720;28;20023;-72
2021/05/20 02:48:40;;;;;;;7.55;6.32;;;10.40;94.30;;;;;;2056788;28;20033;-72
2021/05/20 02:49:43;;;;;;;6.95;6.10;;;10.40;94.40;;;;;;2056776;28;20105;-72
2021/05/20 02:50:43;;;;;;;7.18;5.70;;;10.50;94.40;;;;;;2056710;28;20042;-72
2021/05/20 02:51:44;;;;;;;6.93;5.85;;;10.50;94.40;;;;;;2056690;28;20406;-71
2021/05/20 02:52:45;;;;;;;6.75;5.93;;;10.50;94.60;;;;;;2048228;29;20118;-72
2021/05/20 02:53:46;;;;;;;8.70;6.22;;;10.50;94.50;;;;;;2048044;29;20071;-72
2021/05/20 02:54:46;;;;;;;6.88;5.80;;;10.50;94.40;;;;;;2048116;29;20074;-71
2021/05/20 02:55:47;;;;;;;6.05;5.45;;;10.50;94.40;;;;;;2056761;28;20053;-72
2021/05/20 02:56:48;;;;;;;6.45;5.80;;;10.50;94.40;;;;;;2056433;28;20390;-71
2021/05/20 02:57:53;;;;;;;6.20;5.60;;;10.50;94.50;;;;;;2056803;28;20037;-71
2021/05/20 02:58:53;;;;;;;7.20;5.90;;;10.50;94.50;;;;;;2056818;28;20037;-71
2021/05/20 02:59:55;;;;;;;7.10;5.80;;;10.50;94.50;;;;;;2056801;28;20390;-71
2021/05/20 03:00:56;;;;;;;7.22;5.97;;;10.50;94.50;;;;;;2056672;28;20031;-70
2021/05/20 03:02:04;;;;;;;7.65;5.90;;;10.50;94.50;;;;;;2056671;28;20030;-70
2021/05/20 03:03:05;;;;;;;5.82;5.10;;;10.50;94.50;;;;;;2056736;28;20391;-71
2021/05/20 03:04:05;;;;;;;5.95;5.35;;;10.50;94.60;;;;;;2056900;28;20070;-70
2021/05/20 03:05:07;;;;;;;5.95;5.35;;;10.50;94.60;;;;;;2056733;28;20072;-71
2021/05/20 03:06:07;;;;;;;6.30;5.70;;;10.50;94.50;;;;;;2047633;29;20126;-72
2021/05/20 03:07:08;;;;;;;6.28;5.50;;;10.50;94.50;;;;;;2047837;28;20087;-70
2021/05/20 03:08:11;;;;;;;7.75;5.93;;;10.50;94.30;;;;;;2056499;28;20474;-70
2021/05/20 03:09:11;;;;;;;6.93;6.10;;;10.50;94.30;;;;;;2056482;28;20030;-72
2021/05/20 03:10:12;;;;;;;6.07;5.47;;;10.50;94.40;;;;;;2056560;28;20690;-70
2021/05/20 03:11:13;;;;;;;7.03;5.70;;;10.50;94.40;;;;;;2056457;28;20050;-71
2021/05/20 03:12:13;;;;;;;6.10;5.30;;;10.50;94.50;;;;;;2056319;28;20030;-71
2021/05/20 03:13:14;;;;;;;5.95;5.35;;;10.50;94.50;;;;;;2056330;28;20450;-71
2021/05/20 03:14:15;;;;;;;6.45;5.75;;;10.50;94.40;;;;;;2056611;28;20054;-71
2021/05/20 03:15:15;;;;;;;6.90;5.78;;;10.50;94.30;;;;;;2056470;28;20045;-71
2021/05/20 03:16:16;;;;;;;6.38;5.68;;;10.50;94.20;;;;;;2056125;28;20407;-72
2021/05/20 03:17:17;;;;;;;6.70;5.97;;;10.50;94.10;;;;;;2056345;28;20045;-70
2021/05/20 03:18:18;;;;;;;7.05;5.70;;;10.50;94.00;;;;;;2056469;28;20039;-71
2021/05/20 03:19:18;;;;;;;6.75;5.53;;;10.50;94.00;;;;;;2047913;29;20031;-71
2021/05/20 03:20:21;;;;;;;6.00;5.43;;;10.50;94.00;;;;;;2047851;28;20086;-71
2021/05/20 03:21:21;;;;;;;7.28;5.90;;;10.50;94.00;;;;;;2056360;28;20397;-71
2021/05/20 03:22:22;;;;;;;6.80;6.10;;;10.50;94.00;;;;;;2056974;28;20026;-71
2021/05/20 03:23:22;;;;;;;6.72;5.90;;;10.50;94.00;;;;;;2048199;29;20037;-71
2021/05/20 03:24:23;;;;;;;6.68;5.97;;;10.50;93.90;;;;;;2048180;29;20082;-71
2021/05/20 03:25:24;;;;;;;6.70;5.88;;;10.60;93.90;;;;;;2047816;29;20033;-70
2021/05/20 03:26:25;;;;;;;7.30;6.18;;;10.60;93.80;;;;;;2047639;28;20083;-71
2021/05/20 03:27:26;;;;;;;6.72;5.70;;;10.60;93.60;;;;;;2056428;28;20478;-71
2021/05/20 03:28:26;;;;;;;6.47;5.78;;;10.60;93.70;;;;;;2056581;28;20058;-71
2021/05/20 03:29:27;;;;;;;6.57;5.88;;;10.60;93.60;;;;;;2047978;29;20102;-70
2021/05/20 03:30:29;;;;;;;6.53;5.93;;;10.60;93.60;;;;;;2047982;28;20114;-71
2021/05/20 03:31:30;;;;;;;7.13;5.88;;;10.60;93.60;;;;;;2056520;28;20033;-71
2021/05/20 03:32:31;;;;;;;7.80;6.20;;;10.60;93.50;;;;;;2056410;28;20034;-71
2021/05/20 03:33:32;;;;;;;9.43;6.60;;;10.60;93.50;;;;;;2056386;28;20069;-70
2021/05/20 03:34:33;;;;;;;7.53;6.10;;;10.60;93.40;;;;;;2056377;28;20062;-70
2021/05/20 03:35:34;;;;;;;6.68;5.70;;;10.60;93.60;;;;;;2047905;29;20368;-70
2021/05/20 03:36:34;;;;;;;6.40;5.72;;;10.60;93.60;;;;;;2047290;29;20062;-70
2021/05/20 03:37:36;;;;;;;6.72;5.97;;;10.60;93.60;;;;;;2047680;28;20038;-71
2021/05/20 03:38:37;;;;;;;6.68;5.90;;;10.60;93.60;;;;;;2056363;28;20029;-71
2021/05/20 03:39:37;;;;;;;6.45;5.68;;;10.60;93.50;;;;;;2056365;28;20514;-71
2021/05/20 03:40:38;;;;;;;7.30;5.63;;;10.60;93.50;;;;;;2056377;28;20030;-70
2021/05/20 03:41:39;;;;;;;6.03;5.43;;;10.60;93.60;;;;;;2056329;28;20029;-72
2021/05/20 03:42:39;;;;;;;6.47;5.65;;;10.70;93.50;;;;;;2039814;29;20478;-71
2021/05/20 03:43:40;;;;;;;5.32;4.70;;;10.60;93.40;;;;;;2039854;29;20057;-71
2021/05/20 03:44:40;;;;;;;5.85;5.20;;;10.70;93.40;;;;;;2047796;29;20186;-71
2021/05/20 03:45:41;;;;;;;6.05;5.45;;;10.70;93.40;;;;;;2056426;28;20089;-71
2021/05/20 03:46:42;;;;;;;6.00;5.40;;;10.70;93.40;;;;;;2047380;29;20852;-70
2021/05/20 03:47:43;;;;;;;6.13;5.53;;;10.70;93.40;;;;;;2047761;29;20062;-70
2021/05/20 03:48:43;;;;;;;7.97;5.80;;;10.70;93.40;;;;;;2047628;29;20036;-70
2021/05/20 03:49:44;;;;;;;10.30;7.32;;;10.70;93.40;;;;;;2039746;29;20514;-70
2021/05/20 03:50:44;;;;;;;7.53;6.57;;;10.70;93.20;;;;;;2047743;29;20077;-70
2021/05/20 03:51:45;;;;;;;7.43;6.50;;;10.70;93.30;;;;;;2056213;28;20044;-70
2021/05/20 03:52:45;;;;;;;10.23;7.05;;;10.70;93.30;;;;;;2056257;28;20540;-70
2021/05/20 03:53:46;;;;;;;8.27;6.40;;;10.70;93.50;;;;;;2056102;28;20076;-70
2021/05/20 03:54:47;;;;;;;8.23;6.97;;;10.70;93.30;;;;;;2047627;29;20035;-70
2021/05/20 03:55:49;;;;;;;9.48;6.80;;;10.80;93.40;;;;;;2047741;28;20039;-71
2021/05/20 03:56:50;;;;;;;7.47;6.53;;;10.80;93.50;;;;;;2055975;28;20027;-70
2021/05/20 03:57:50;;;;;;;7.43;6.20;;;10.80;93.60;;;;;;2056316;28;20394;-71
2021/05/20 03:58:51;;;;;;;6.85;5.85;;;10.70;93.50;;;;;;2056400;28;20030;-70
2021/05/20 03:59:51;;;;;;;7.57;6.28;;;10.80;93.70;;;;;;2056360;28;20054;-72
2021/05/20 04:00:52;;;;;;;7.50;6.05;;;10.80;93.70;;;;;;2047725;29;20031;-71
2021/05/20 04:01:53;;;;;;;6.93;5.88;;;10.80;93.70;;;;;;2047770;28;20028;-70
2021/05/20 04:02:53;;;;;;;6.25;5.65;;;10.80;93.80;;;;;;2056370;28;20027;-70
2021/05/20 04:03:54;;;;;;;7.05;5.60;;;10.80;93.80;;;;;;2047552;29;20620;-71
2021/05/20 04:04:54;;;;;;;6.20;5.60;;;10.80;93.80;;;;;;2047710;29;20035;-71
2021/05/20 04:06:01;;;;;;;6.35;5.75;;;10.90;93.80;;;;;;2055834;28;20090;-71
2021/05/20 04:07:02;;;;;;;6.20;5.60;;;10.90;93.80;;;;;;2047514;28;20027;-71
2021/05/20 04:08:03;;;;;;;6.50;5.65;;;10.90;93.80;;;;;;2047635;29;20041;-71
2021/05/20 04:09:04;;;;;;;7.97;6.00;;;10.90;93.90;;;;;;2056094;28;20027;-71
2021/05/20 04:10:05;;;;;;;6.70;5.80;;;10.90;93.90;;;;;;2056254;28;20034;-71
2021/05/20 04:11:05;;;;;;;8.40;7.03;;;10.90;93.90;;;;;;2056195;28;20102;-70
2021/05/20 04:12:06;;;;;;;7.03;6.20;;;10.90;93.70;;;;;;2047435;29;20037;-73
2021/05/20 04:13:07;;;;;;;8.70;6.75;;;10.90;93.70;;;;;;2047772;28;20438;-71
2021/05/20 04:14:08;;;;;;;7.90;6.60;;;10.90;93.50;;;;;;2056154;28;20027;-71
2021/05/20 04:15:09;;;;;;;8.45;6.90;;;10.90;93.50;;;;;;2056208;28;20027;-71
2021/05/20 04:16:14;;;;;;;7.82;6.55;;;10.90;93.60;;;;;;2055959;28;20098;-71
2021/05/20 04:17:15;;;;;;;7.20;6.10;;;10.90;93.80;;;;;;2055978;28;20039;-71
2021/05/20 04:18:15;;;;;;;6.55;5.40;;;10.90;93.80;;;;;;2056090;28;20086;-71
2021/05/20 04:19:16;;;;;;;6.57;5.88;;;10.90;93.60;;;;;;2056247;28;20031;-71
2021/05/20 04:20:17;;;;;;;6.68;5.80;;;11.00;93.60;;;;;;2056254;28;20068;-71
2021/05/20 04:21:17;;;;;;;5.72;5.22;;;11.00;93.60;;;;;;2039525;29;20031;-72
2021/05/20 04:22:18;;;;;;;7.32;6.53;;;11.10;93.50;;;;;;2039680;29;20050;-71
2021/05/20 04:23:19;;;;;;;8.57;6.97;;;11.10;93.50;;;;;;2056177;28;20031;-72
2021/05/20 04:24:21;;;;;;;7.80;6.80;;;11.10;93.10;;;;;;2056163;28;20454;-72
2021/05/20 04:25:22;;;;;;;9.48;6.80;;;11.10;93.10;;;;;;2058174;28;20034;-71
2021/05/20 04:26:23;;;;;;;6.65;6.05;;;11.00;93.00;;;;;;2057520;28;20023;-71
2021/05/20 04:27:23;;;;;;;6.80;6.03;;;11.00;93.20;;;;;;2049462;28;20023;-70
2021/05/20 04:28:24;;;;;;;6.43;5.65;;;11.10;93.40;;;;;;2049461;29;20035;-71
2021/05/20 04:29:25;;;;;;;7.63;5.93;;;11.10;93.40;;;;;;2057856;28;20027;-72
2021/05/20 04:30:26;;;;;;;6.35;5.13;;;11.10;93.40;;;;;;2057835;28;20027;-71
2021/05/20 04:31:26;;;;;;;6.15;5.38;;;11.20;93.40;;;;;;2049156;29;20050;-71
2021/05/20 04:32:27;;;;;;;5.90;5.30;;;11.20;93.20;;;;;;2049250;29;20038;-71
2021/05/20 04:33:27;;;;;;;8.90;7.47;;;11.20;93.10;;;;;;2057684;28;20019;-71
2021/05/20 04:34:28;;;;;;;8.63;6.68;;;11.20;92.90;;;;;;2049125;29;20090;-71
2021/05/20 04:35:29;;;;;;;7.00;6.15;;;11.20;92.60;;;;;;2049094;29;20019;-70
2021/05/20 04:36:30;;;;;;;6.45;5.78;;;11.20;92.60;;;;;;2057219;28;20448;-71
2021/05/20 04:37:30;;;;;;;7.43;5.82;;;11.20;92.70;;;;;;2049029;28;20100;-70
2021/05/20 04:38:31;;;;;;;6.10;5.35;;;11.30;92.70;;;;;;2048988;29;20046;-71
2021/05/20 04:39:31;;;;;;;8.05;5.80;;;11.30;92.70;;;;;;2057761;28;20026;-70
2021/05/20 04:40:34;;;;;;;8.40;6.03;;;11.30;92.60;;;;;;2049156;29;20034;-69
2021/05/20 04:41:34;;;;;;;6.38;5.32;;;11.40;92.50;;;;;;2049214;29;20077;-70
2021/05/20 04:42:35;;;;;;;6.32;5.60;;;11.40;92.50;;;;;;2049175;29;20035;-72
2021/05/20 04:43:36;;;;;;;6.82;5.90;;;11.40;92.40;;;;;;2057734;28;20031;-70
2021/05/20 04:44:36;;;;;;;7.00;6.00;;;11.50;92.30;;;;;;2057687;28;20491;-71
2021/05/20 04:45:38;;;;;;;6.82;5.20;;;11.50;92.00;;;;;;2057786;28;20030;-70
2021/05/20 04:46:39;;;;;;;6.65;5.28;;;11.50;92.00;;;;;;2057379;28;20487;-71
2021/05/20 04:47:39;;;;;;;8.95;6.40;;;11.50;91.80;;;;;;2057541;28;20109;-72
2021/05/20 04:48:40;;;;;;;7.22;5.60;;;11.60;91.80;;;;;;2057655;28;20118;-71
2021/05/20 04:49:41;;;;;;;7.75;5.72;;;11.60;91.80;;;;;;2057712;28;20023;-71
2021/05/20 04:50:41;;;;;;;6.63;5.90;;;11.60;91.70;;;;;;2057645;28;20375;-72
2021/05/20 04:51:42;;;;;;;6.50;5.72;;;11.60;91.70;;;;;;2057706;28;20077;-73
2021/05/20 04:52:44;;;;;;;6.82;6.10;;;11.60;91.50;;;;;;2057662;28;20043;-72
2021/05/20 04:53:44;;;;;;;6.80;6.10;;;11.60;91.30;;;;;;2049063;29;20115;-71
2021/05/20 04:54:45;;;;;;;7.38;6.57;;;11.70;91.30;;;;;;2049157;28;20032;-71
2021/05/20 04:55:46;;;;;;;9.60;6.40;;;11.70;91.20;;;;;;2057768;28;20023;-72
2021/05/20 04:56:46;;;;;;;6.30;5.70;;;11.70;91.00;;;;;;2057280;28;20023;-71
2021/05/20 04:57:47;;;;;;;6.32;5.38;;;11.70;91.00;;;;;;2049215;29;20043;-72
2021/05/20 04:58:48;;;;;;;5.72;5.07;;;11.70;91.00;;;;;;2049216;29;20035;-72
2021/05/20 04:59:48;;;;;;;6.82;5.32;;;11.70;91.10;;;;;;2057785;28;20026;-71
2021/05/20 05:00:49;;;;;;;9.38;6.40;;;11.70;91.10;;;;;;2057948;28;20023;-71
2021/05/20 05:01:49;;;;;;;10.23;7.60;;;11.80;91.20;;;;;;2057884;28;20340;-71
2021/05/20 05:02:50;;;;;;;9.50;7.05;;;11.80;91.00;;;;;;2049413;29;20031;-70
2021/05/20 05:03:51;;;;;;;8.43;6.85;;;11.80;90.90;;;;;;2049200;29;20094;-71
2021/05/20 05:04:51;;;;;;;7.40;6.07;;;11.80;90.90;;;;;;2057537;28;20027;-71
2021/05/20 05:05:53;;;;;;;9.95;7.05;;;11.90;90.90;;;;;;2057461;28;20069;-71
2021/05/20 05:06:54;;;;;;;7.50;6.70;;;11.90;90.70;;;;;;2057330;28;20030;-71
2021/05/20 05:07:54;;;;;;;8.35;6.50;;;11.90;90.70;;;;;;2048836;29;20031;-70
2021/05/20 05:08:55;;;;;;;7.03;6.07;;;11.90;90.60;;;;;;2048743;29;20035;-70
2021/05/20 05:09:56;;;;;;;7.80;5.82;;;11.90;90.60;;;;;;2048979;29;20748;-71
2021/05/20 05:10:56;;;;;;;9.80;6.47;;;11.90;90.40;;;;;;2048963;29;20039;-71
2021/05/20 05:12:02;;;;;;;9.10;6.13;;;11.90;90.20;;;;;;2057099;28;20067;-71
2021/05/20 05:13:03;;;;;;;9.35;6.32;;;11.90;90.20;;;;;;2048856;29;20075;-71
2021/05/20 05:14:04;;;;;;;7.15;6.40;;;11.90;90.20;;;;;;2048801;29;20035;-71
2021/05/20 05:15:05;;;;;;;6.45;5.63;;;11.80;90.30;;;;;;2057487;28;20030;-71
2021/05/20 05:16:06;;;;;;;6.13;5.50;;;11.80;90.50;;;;;;2057124;28;20045;-71
2021/05/20 05:17:07;;;;;;;6.22;5.63;;;11.80;90.40;;;;;;2048822;28;20027;-71